Time,TemperatureF,DewpointF,PressureIn,WindDirection,WindDirectionDegrees,WindSpeedMPH,WindSpeedGustMPH,Humidity,HourlyPrecipIn,Conditions,Clouds,dailyrainin,SolarRadiationWatts/m^2,SoftwareType,DateUTC
2013-01-19 00:03:00,30.9,27.9,29.80,West,275,0.0,1.0,88,0.00,,,0.00,0.0,meteohub,2013-01-19 06:03:00,
2013-01-19 00:08:00,30.7,27.7,29.80,West,275,0.0,1.0,88,0.00,,,0.00,0.0,meteohub,2013-01-19 06:08:00,
2013-01-19 00:13:00,30.6,27.5,29.80,West,275,0.0,1.0,88,0.00,,,0.00,0.0,meteohub,2013-01-19 06:13:00,
2013-01-19 00:18:00,30.6,27.5,29.79,West,275,0.0,0.0,88,0.00,,,0.00,0.0,meteohub,2013-01-19 06:18:00,
2013-01-19 00:23:00,30.7,27.9,29.79,West,275,0.0,0.0,89,0.00,,,0.00,0.0,meteohub,2013-01-19 06:23:00,
2013-01-19 00:28:00,30.7,27.9,29.79,West,268,0.0,1.0,89,0.00,,,0.00,0.0,meteohub,2013-01-19 06:28:00,
2013-01-19 00:33:00,30.7,27.9,29.79,West,268,0.0,1.0,89,0.00,,,0.00,0.0,meteohub,2013-01-19 06:33:00,
2013-01-19 00:38:00,30.9,28.0,29.79,West,268,0.0,0.0,89,0.00,,,0.00,0.0,meteohub,2013-01-19 06:38:00,
2013-01-19 00:43:00,30.9,27.9,29.79,West,268,0.0,0.0,88,0.00,,,0.00,0.0,meteohub,2013-01-19 06:43:00,
2013-01-19 00:48:00,30.7,27.7,29.78,West,268,0.0,0.0,88,0.00,,,0.00,0.0,meteohub,2013-01-19 06:48:00,
2013-01-19 00:53:00,30.9,27.9,29.78,West,268,0.0,0.0,88,0.00,,,0.00,0.0,meteohub,2013-01-19 06:53:00,
2013-01-19 00:58:00,30.7,27.7,29.79,West,268,0.0,0.0,88,0.00,,,0.00,0.0,meteohub,2013-01-19 06:58:00,
2013-01-19 01:03:00,30.7,27.7,29.79,West,268,0.0,0.0,88,0.00,,,0.00,0.0,meteohub,2013-01-19 07:03:00,
2013-01-19 01:08:00,30.7,27.7,29.79,West,268,0.0,0.0,88,0.00,,,0.00,0.0,meteohub,2013-01-19 07:08:00,
2013-01-19 01:13:00,30.6,27.5,29.79,West,268,0.0,0.0,88,0.00,,,0.00,0.0,meteohub,2013-01-19 07:13:00,
2013-01-19 01:18:00,30.6,27.5,29.79,North,0,0.0,0.0,88,0.00,,,0.00,0.0,meteohub,2013-01-19 07:18:00,
2013-01-19 01:23:00,30.4,27.3,29.79,North,0,0.0,1.0,88,0.00,,,0.00,0.0,meteohub,2013-01-19 07:23:00,
2013-01-19 01:28:00,30.4,27.3,29.78,North,0,0.0,1.0,88,0.00,,,0.00,0.0,meteohub,2013-01-19 07:28:00,
2013-01-19 01:33:00,30.4,27.5,29.78,North,5,0.0,1.0,89,0.00,,,0.00,0.0,meteohub,2013-01-19 07:33:00,
2013-01-19 01:39:00,30.4,27.5,29.78,North,5,0.0,1.0,89,0.00,,,0.00,0.0,meteohub,2013-01-19 07:39:00,
2013-01-19 01:44:00,30.4,27.5,29.78,North,5,0.0,1.0,89,0.00,,,0.00,0.0,meteohub,2013-01-19 07:44:00,
2013-01-19 01:49:00,30.4,27.5,29.78,North,5,0.0,1.0,89,0.00,,,0.00,0.0,meteohub,2013-01-19 07:49:00,
2013-01-19 01:54:00,30.6,27.7,29.78,NNE,19,0.0,1.0,89,0.00,,,0.00,0.0,meteohub,2013-01-19 07:54:00,
2013-01-19 01:59:00,30.6,27.7,29.78,NNE,19,0.0,2.0,89,0.00,,,0.00,0.0,meteohub,2013-01-19 07:59:00,
2013-01-19 02:04:00,30.6,27.7,29.79,NNE,18,0.0,2.0,89,0.00,,,0.00,0.0,meteohub,2013-01-19 08:04:00,
2013-01-19 02:09:00,30.6,27.7,29.78,NNE,18,0.0,2.0,89,0.00,,,0.00,0.0,meteohub,2013-01-19 08:09:00,
2013-01-19 02:14:00,30.6,27.7,29.78,NNE,18,0.0,1.0,89,0.00,,,0.00,0.0,meteohub,2013-01-19 08:14:00,
2013-01-19 02:19:00,30.6,27.7,29.78,ESE,117,0.0,1.0,89,0.00,,,0.00,0.0,meteohub,2013-01-19 08:19:00,
2013-01-19 02:24:00,30.6,28.0,29.78,ESE,122,0.0,1.0,90,0.00,,,0.00,0.0,meteohub,2013-01-19 08:24:00,
2013-01-19 02:29:00,30.7,28.2,29.78,ESE,122,0.0,1.0,90,0.00,,,0.00,0.0,meteohub,2013-01-19 08:29:00,
2013-01-19 02:34:00,30.7,28.2,29.77,ESE,123,0.0,1.0,90,0.00,,,0.00,0.0,meteohub,2013-01-19 08:34:00,
2013-01-19 02:39:00,31.1,28.8,29.77,WNW,294,0.0,2.0,91,0.00,,,0.00,0.0,meteohub,2013-01-19 08:39:00,
2013-01-19 02:44:00,31.5,29.1,29.77,SE,131,0.0,3.0,91,0.00,,,0.00,0.0,meteohub,2013-01-19 08:44:00,
2013-01-19 02:49:00,31.5,29.1,29.76,SSE,152,0.0,3.0,91,0.00,,,0.00,0.0,meteohub,2013-01-19 08:49:00,
2013-01-19 02:54:00,31.6,29.3,29.76,SSE,153,0.0,3.0,91,0.00,,,0.00,0.0,meteohub,2013-01-19 08:54:00,
2013-01-19 02:59:00,31.6,29.1,29.76,SSE,153,0.0,2.0,90,0.00,,,0.00,0.0,meteohub,2013-01-19 08:59:00,
2013-01-19 03:04:00,31.6,28.8,29.75,SSE,152,0.0,2.0,89,0.00,,,0.00,0.0,meteohub,2013-01-19 09:04:00,
2013-01-19 03:09:00,31.6,28.8,29.76,SSE,152,0.0,2.0,89,0.00,,,0.00,0.0,meteohub,2013-01-19 09:09:00,
2013-01-19 03:14:00,31.6,28.8,29.76,SSE,152,0.0,2.0,89,0.00,,,0.00,0.0,meteohub,2013-01-19 09:14:00,
2013-01-19 03:19:00,31.6,28.8,29.76,SSE,152,0.0,2.0,89,0.00,,,0.00,0.0,meteohub,2013-01-19 09:19:00,
2013-01-19 03:24:00,31.5,28.4,29.75,SSE,160,0.0,0.0,88,0.00,,,0.00,0.0,meteohub,2013-01-19 09:24:00,
2013-01-19 03:29:00,31.5,28.0,29.78,WSW,245,0.0,3.0,87,0.00,,,0.00,0.0,meteohub,2013-01-19 09:29:00,
2013-01-19 03:34:00,31.1,27.3,29.77,WSW,245,0.0,3.0,86,0.00,,,0.00,0.0,meteohub,2013-01-19 09:34:00,
2013-01-19 03:39:00,30.7,27.1,29.77,WSW,245,0.0,3.0,86,0.00,,,0.00,0.0,meteohub,2013-01-19 09:39:00,
2013-01-19 03:44:00,30.6,27.0,29.77,WSW,245,0.0,2.0,86,0.00,,,0.00,0.0,meteohub,2013-01-19 09:44:00,
2013-01-19 03:49:00,30.4,27.0,29.77,WSW,245,1.0,1.0,87,0.00,,,0.00,0.0,meteohub,2013-01-19 09:49:00,
2013-01-19 03:54:00,30.2,27.1,29.77,WSW,245,0.0,1.0,88,0.00,,,0.00,0.0,meteohub,2013-01-19 09:54:00,
2013-01-19 03:59:00,30.0,27.0,29.77,WSW,245,0.0,2.0,88,0.00,,,0.00,0.0,meteohub,2013-01-19 09:59:00,
2013-01-19 04:04:00,30.0,27.1,29.77,WSW,245,0.0,2.0,89,0.00,,,0.00,0.0,meteohub,2013-01-19 10:04:00,
2013-01-19 04:09:00,29.8,27.0,29.77,West,259,0.0,1.0,89,0.00,,,0.00,0.0,meteohub,2013-01-19 10:09:00,
2013-01-19 04:14:00,29.8,27.0,29.77,West,259,0.0,2.0,89,0.00,,,0.00,0.0,meteohub,2013-01-19 10:14:00,
2013-01-19 04:19:00,29.7,26.8,29.77,West,259,0.0,2.0,89,0.00,,,0.00,0.0,meteohub,2013-01-19 10:19:00,
2013-01-19 04:24:00,29.7,26.8,29.77,West,263,0.0,3.0,89,0.00,,,0.00,0.0,meteohub,2013-01-19 10:24:00,
2013-01-19 04:29:00,29.7,26.8,29.76,SW,234,0.0,3.0,89,0.00,,,0.00,0.0,meteohub,2013-01-19 10:29:00,
2013-01-19 04:34:00,29.7,26.8,29.76,SW,234,0.0,3.0,89,0.00,,,0.00,0.0,meteohub,2013-01-19 10:34:00,
2013-01-19 04:39:00,29.7,26.8,29.76,SSW,207,0.0,3.0,89,0.00,,,0.00,0.0,meteohub,2013-01-19 10:39:00,
2013-01-19 04:44:00,29.8,27.0,29.77,SSW,207,0.0,3.0,89,0.00,,,0.00,0.0,meteohub,2013-01-19 10:44:00,
2013-01-19 04:50:00,29.8,27.0,29.77,South,177,0.0,2.0,89,0.00,,,0.00,0.0,meteohub,2013-01-19 10:50:00,
2013-01-19 04:54:00,29.7,26.6,29.78,South,178,0.0,2.0,88,0.00,,,0.00,0.0,meteohub,2013-01-19 10:54:00,
2013-01-19 04:59:00,29.7,26.6,29.77,South,178,0.0,1.0,88,0.00,,,0.00,0.0,meteohub,2013-01-19 10:59:00,
2013-01-19 05:04:00,29.7,26.6,29.78,South,177,0.0,1.0,88,0.00,,,0.00,0.0,meteohub,2013-01-19 11:04:00,
2013-01-19 05:09:00,29.7,26.6,29.78,South,178,0.0,0.0,88,0.00,,,0.00,0.0,meteohub,2013-01-19 11:09:00,
2013-01-19 05:14:00,29.7,26.6,29.78,South,177,0.0,0.0,88,0.00,,,0.00,0.0,meteohub,2013-01-19 11:14:00,
2013-01-19 06:47:00,30.4,27.5,29.79,West,269,1.0,4.0,89,0.00,,,0.00,0.0,meteohub,2013-01-19 12:47:00,
2013-01-19 06:48:00,30.4,27.5,29.79,West,269,0.0,4.0,89,0.00,,,0.00,0.0,meteohub,2013-01-19 12:48:00,
2013-01-19 06:53:00,30.6,27.5,29.80,West,269,0.0,4.0,88,0.00,,,0.00,0.0,meteohub,2013-01-19 12:53:00,
2013-01-19 06:58:00,30.7,27.7,29.80,West,269,0.0,2.0,88,0.00,,,0.00,0.0,meteohub,2013-01-19 12:58:00,
2013-01-19 07:03:00,30.7,27.7,29.79,West,269,0.0,2.0,88,0.00,,,0.00,0.0,meteohub,2013-01-19 13:03:00,
2013-01-19 07:08:00,30.9,27.9,29.80,West,269,0.0,2.0,88,0.00,,,0.00,0.0,meteohub,2013-01-19 13:08:00,
2013-01-19 07:13:00,31.1,27.7,29.81,West,269,1.0,2.0,87,0.00,,,0.00,0.0,meteohub,2013-01-19 13:13:00,
2013-01-19 07:18:00,31.3,27.9,29.81,West,269,1.0,2.0,87,0.00,,,0.00,0.0,meteohub,2013-01-19 13:18:00,
2013-01-19 07:23:00,31.5,28.0,29.81,West,264,2.0,3.0,87,0.00,,,0.00,0.0,meteohub,2013-01-19 13:23:00,
2013-01-19 07:28:00,31.6,28.2,29.81,WNW,291,1.0,5.0,87,0.00,,,0.00,0.0,meteohub,2013-01-19 13:28:00,
2013-01-19 07:34:00,31.6,28.2,29.81,West,267,3.0,5.0,87,0.00,,,0.00,0.0,meteohub,2013-01-19 13:34:00,
2013-01-19 07:39:00,32.0,28.2,29.82,West,265,3.0,5.0,86,0.00,,,0.00,0.0,meteohub,2013-01-19 13:39:00,
2013-01-19 07:44:00,32.2,28.4,29.81,West,274,3.0,6.0,86,0.00,,,0.00,0.0,meteohub,2013-01-19 13:44:00,
2013-01-19 07:49:00,32.4,28.4,29.82,West,266,2.0,6.0,85,0.00,,,0.00,0.0,meteohub,2013-01-19 13:49:00,
2013-01-19 07:54:00,32.4,28.4,29.82,West,266,2.0,6.0,85,0.00,,,0.00,0.0,meteohub,2013-01-19 13:54:00,
2013-01-19 07:59:00,32.4,28.4,29.82,West,266,2.0,5.0,85,0.00,,,0.00,5.0,meteohub,2013-01-19 13:59:00,
2013-01-19 08:04:00,32.4,28.4,29.81,West,266,0.0,4.0,85,0.00,,,0.00,7.0,meteohub,2013-01-19 14:04:00,
2013-01-19 08:09:00,32.4,28.4,29.82,West,266,3.0,3.0,85,0.00,,,0.00,11.0,meteohub,2013-01-19 14:09:00,
2013-01-19 08:14:00,32.4,28.4,29.82,West,266,1.0,3.0,85,0.00,,,0.00,14.0,meteohub,2013-01-19 14:14:00,
2013-01-19 08:19:00,32.4,28.4,29.82,West,266,0.0,3.0,85,0.00,,,0.00,16.0,meteohub,2013-01-19 14:19:00,
2013-01-19 08:24:00,32.4,28.4,29.83,West,266,1.0,3.0,85,0.00,,,0.00,19.0,meteohub,2013-01-19 14:24:00,
2013-01-19 08:29:00,32.4,28.4,29.83,West,266,2.0,3.0,85,0.00,,,0.00,23.0,meteohub,2013-01-19 14:29:00,
2013-01-19 08:30:00,32.4,28.4,29.83,West,266,1.0,3.0,85,0.00,,,0.00,25.0,meteohub,2013-01-19 14:30:00,
2013-01-19 08:37:00,32.5,28.6,29.83,West,267,2.0,4.0,85,0.00,,,0.00,23.0,meteohub,2013-01-19 14:37:00,
2013-01-19 08:42:00,32.5,28.6,29.84,West,269,2.0,4.0,85,0.00,,,0.00,21.0,meteohub,2013-01-19 14:42:00,
2013-01-19 08:47:00,32.7,28.8,29.84,West,265,3.0,4.0,85,0.00,,,0.00,40.0,meteohub,2013-01-19 14:47:00,
2013-01-19 08:52:00,33.3,29.3,29.83,West,265,3.0,4.0,85,0.00,,,0.00,76.0,meteohub,2013-01-19 14:52:00,
2013-01-19 08:57:00,33.8,29.5,29.84,West,268,2.0,4.0,84,0.00,,,0.00,46.0,meteohub,2013-01-19 14:57:00,
2013-01-19 09:02:00,34.0,29.3,29.84,West,271,3.0,4.0,83,0.00,,,0.00,58.0,meteohub,2013-01-19 15:02:00,
2013-01-19 09:07:00,34.3,29.7,29.85,West,271,4.0,4.0,83,0.00,,,0.00,81.0,meteohub,2013-01-19 15:07:00,
2013-01-19 09:12:00,34.5,29.8,29.85,West,263,4.0,5.0,83,0.00,,,0.00,39.0,meteohub,2013-01-19 15:12:00,
2013-01-19 09:17:00,34.7,30.0,29.85,West,270,4.0,6.0,83,0.00,,,0.00,35.0,meteohub,2013-01-19 15:17:00,
2013-01-19 09:22:00,34.9,30.2,29.86,West,267,4.0,6.0,83,0.00,,,0.00,123.0,meteohub,2013-01-19 15:22:00,
2013-01-19 09:27:00,35.2,30.4,29.86,WSW,250,4.0,7.0,82,0.00,,,0.00,62.0,meteohub,2013-01-19 15:27:00,
2013-01-19 09:32:00,35.6,30.7,29.86,West,265,4.0,7.0,82,0.00,,,0.00,100.0,meteohub,2013-01-19 15:32:00,
2013-01-19 09:37:00,35.8,30.7,29.87,West,267,6.0,7.0,82,0.00,,,0.00,70.0,meteohub,2013-01-19 15:37:00,
2013-01-19 09:42:00,35.8,30.7,29.87,WSW,246,4.0,7.0,82,0.00,,,0.00,67.0,meteohub,2013-01-19 15:42:00,
2013-01-19 09:47:00,36.0,30.9,29.87,West,262,4.0,7.0,82,0.00,,,0.00,70.0,meteohub,2013-01-19 15:47:00,
2013-01-19 09:52:00,36.1,31.1,29.87,West,273,6.0,7.0,82,0.00,,,0.00,54.0,meteohub,2013-01-19 15:52:00,
2013-01-19 09:57:00,36.3,31.3,29.87,West,277,4.0,8.0,82,0.00,,,0.00,63.0,meteohub,2013-01-19 15:57:00,
2013-01-19 10:02:00,36.7,31.5,29.88,West,273,5.0,8.0,81,0.00,,,0.00,74.0,meteohub,2013-01-19 16:02:00,
2013-01-19 10:07:00,37.2,32.0,29.88,West,263,5.0,8.0,81,0.00,,,0.00,128.0,meteohub,2013-01-19 16:07:00,
2013-01-19 10:12:00,37.9,32.4,29.88,West,265,4.0,9.0,80,0.00,,,0.00,125.0,meteohub,2013-01-19 16:12:00,
2013-01-19 10:17:00,38.1,32.2,29.88,West,269,5.0,9.0,79,0.00,,,0.00,111.0,meteohub,2013-01-19 16:17:00,
2013-01-19 10:22:00,38.3,32.4,29.88,West,268,8.0,9.0,79,0.00,,,0.00,104.0,meteohub,2013-01-19 16:22:00,
2013-01-19 10:27:00,38.3,32.4,29.87,West,271,6.0,11.0,79,0.00,,,0.00,90.0,meteohub,2013-01-19 16:27:00,
2013-01-19 10:32:00,38.1,32.2,29.88,West,279,6.0,11.0,79,0.00,,,0.00,172.0,meteohub,2013-01-19 16:32:00,
2013-01-19 10:37:00,38.3,32.4,29.88,WNW,282,5.0,10.0,79,0.00,,,0.00,192.0,meteohub,2013-01-19 16:37:00,
2013-01-19 10:43:00,38.3,32.4,29.88,West,269,7.0,12.0,79,0.00,,,0.00,153.0,meteohub,2013-01-19 16:43:00,
2013-01-19 10:48:00,38.5,32.5,29.88,WNW,300,6.0,12.0,79,0.00,,,0.00,186.0,meteohub,2013-01-19 16:48:00,
2013-01-19 10:53:00,38.7,32.4,29.88,WSW,238,8.0,14.0,78,0.00,,,0.00,213.0,meteohub,2013-01-19 16:53:00,
2013-01-19 10:58:00,38.8,32.5,29.89,West,267,6.0,18.0,78,0.00,,,0.00,174.0,meteohub,2013-01-19 16:58:00,
2013-01-19 11:03:00,39.0,32.4,29.89,West,280,6.0,18.0,77,0.00,,,0.00,193.0,meteohub,2013-01-19 17:03:00,
2013-01-19 11:08:00,38.7,32.0,29.89,SW,236,10.0,18.0,77,0.00,,,0.00,185.0,meteohub,2013-01-19 17:08:00,
2013-01-19 11:14:00,38.5,32.2,29.90,West,269,5.0,15.0,78,0.00,,,0.00,123.0,meteohub,2013-01-19 17:14:00,
2013-01-19 11:19:00,38.5,32.2,29.89,WSW,250,5.0,15.0,78,0.00,,,0.00,116.0,meteohub,2013-01-19 17:19:00,
2013-01-19 11:24:00,38.3,32.4,29.89,West,264,4.0,15.0,79,0.00,,,0.00,183.0,meteohub,2013-01-19 17:24:00,
2013-01-19 11:25:00,38.3,32.4,29.89,West,271,4.0,15.0,79,0.00,,,0.00,183.0,meteohub,2013-01-19 17:25:00,
2013-01-19 11:32:00,38.7,32.4,29.89,West,273,5.0,12.0,78,0.00,,,0.00,135.0,meteohub,2013-01-19 17:32:00,
2013-01-19 11:40:00,38.8,32.2,29.89,West,267,8.0,12.0,77,0.00,,,0.00,262.0,meteohub,2013-01-19 17:40:00,
2013-01-19 11:45:00,39.2,32.5,29.89,West,270,6.0,13.0,77,0.00,,,0.00,308.0,meteohub,2013-01-19 17:45:00,
2013-01-19 11:50:00,39.4,31.8,29.89,WSW,257,8.0,16.0,74,0.00,,,0.00,278.0,meteohub,2013-01-19 17:50:00,
2013-01-19 11:56:00,39.0,31.5,29.89,West,264,7.0,17.0,74,0.00,,,0.00,213.0,meteohub,2013-01-19 17:56:00,
2013-01-19 12:01:00,38.7,31.1,29.89,West,263,5.0,17.0,74,0.00,,,0.00,188.0,meteohub,2013-01-19 18:01:00,
2013-01-19 12:06:00,38.5,31.6,29.90,WSW,255,7.0,17.0,76,0.00,,,0.00,158.0,meteohub,2013-01-19 18:06:00,
2013-01-19 12:11:00,38.1,31.6,29.90,WSW,246,7.0,13.0,77,0.00,,,0.00,135.0,meteohub,2013-01-19 18:11:00,
2013-01-19 12:17:00,37.9,31.6,29.90,WSW,252,5.0,13.0,78,0.00,,,0.00,105.0,meteohub,2013-01-19 18:17:00,
2013-01-19 12:22:00,37.8,30.9,29.90,West,271,12.0,13.0,76,0.00,,,0.00,121.0,meteohub,2013-01-19 18:22:00,
2013-01-19 12:27:00,37.0,30.2,29.91,West,277,10.0,19.0,76,0.00,,,0.00,134.0,meteohub,2013-01-19 18:27:00,
2013-01-19 12:32:00,36.7,29.8,29.92,West,259,8.0,19.0,76,0.00,,,0.00,146.0,meteohub,2013-01-19 18:32:00,
2013-01-19 12:37:00,33.6,27.1,29.93,WNW,282,7.0,22.0,77,0.00,,,0.00,160.0,meteohub,2013-01-19 18:37:00,
2013-01-19 12:42:00,31.5,26.2,29.94,WNW,297,5.0,22.0,81,0.00,,,0.00,97.0,meteohub,2013-01-19 18:42:00,
2013-01-19 12:47:00,30.6,25.3,29.94,North,355,8.0,22.0,81,0.00,,,0.00,111.0,meteohub,2013-01-19 18:47:00,
2013-01-19 12:53:00,28.8,23.0,29.95,NNW,348,5.0,16.0,79,0.00,,,0.00,95.0,meteohub,2013-01-19 18:53:00,
2013-01-19 12:58:00,27.9,22.8,29.96,WNW,303,3.0,16.0,81,0.00,,,0.00,151.0,meteohub,2013-01-19 18:58:00,
2013-01-19 13:03:00,27.3,22.3,29.96,WNW,292,11.0,16.0,81,0.00,,,0.00,134.0,meteohub,2013-01-19 19:03:00,
2013-01-19 13:08:00,26.6,21.2,29.97,WNW,282,8.0,16.0,80,0.00,,,0.00,109.0,meteohub,2013-01-19 19:08:00,
2013-01-19 13:14:00,26.2,21.2,29.98,West,277,5.0,17.0,81,0.00,,,0.00,91.0,meteohub,2013-01-19 19:14:00,
2013-01-19 13:19:00,25.5,20.3,29.99,North,0,12.0,17.0,80,0.00,,,0.00,69.0,meteohub,2013-01-19 19:19:00,
2013-01-19 13:24:00,25.0,19.8,29.98,SW,221,3.0,23.0,80,0.00,,,0.00,72.0,meteohub,2013-01-19 19:24:00,
2013-01-19 13:29:00,25.0,19.9,29.99,NW,312,7.0,23.0,81,0.00,,,0.00,113.0,meteohub,2013-01-19 19:29:00,
2013-01-19 13:34:00,25.0,19.8,29.99,North,11,5.0,23.0,80,0.00,,,0.00,160.0,meteohub,2013-01-19 19:34:00,
2013-01-19 13:40:00,25.0,19.8,30.00,NW,312,5.0,13.0,80,0.00,,,0.00,202.0,meteohub,2013-01-19 19:40:00,
2013-01-19 13:45:00,24.4,18.5,30.01,WNW,298,3.0,18.0,78,0.00,,,0.00,185.0,meteohub,2013-01-19 19:45:00,
2013-01-19 13:50:00,23.9,17.8,30.01,West,276,10.0,18.0,77,0.00,,,0.00,139.0,meteohub,2013-01-19 19:50:00,
2013-01-19 13:56:00,23.4,17.6,30.02,WNW,284,6.0,18.0,78,0.00,,,0.00,113.0,meteohub,2013-01-19 19:56:00,
2013-01-19 14:01:00,23.0,17.2,30.02,North,0,5.0,18.0,78,0.00,,,0.00,199.0,meteohub,2013-01-19 20:01:00,
2013-01-19 14:07:00,23.2,18.0,30.01,West,276,8.0,18.0,80,0.00,,,0.00,185.0,meteohub,2013-01-19 20:07:00,
2013-01-19 14:12:00,23.4,18.1,30.02,WNW,294,7.0,17.0,80,0.00,,,0.00,183.0,meteohub,2013-01-19 20:12:00,
2013-01-19 14:17:00,23.4,18.3,30.03,WNW,283,6.0,17.0,81,0.00,,,0.00,104.0,meteohub,2013-01-19 20:17:00,
2013-01-19 14:22:00,22.5,16.9,30.04,WNW,302,8.0,17.0,79,0.00,,,0.00,134.0,meteohub,2013-01-19 20:22:00,
2013-01-19 14:27:00,21.7,15.1,30.04,West,279,12.0,18.0,75,0.00,,,0.00,181.0,meteohub,2013-01-19 20:27:00,
2013-01-19 14:32:00,21.9,14.9,30.04,WSW,240,8.0,20.0,74,0.00,,,0.00,148.0,meteohub,2013-01-19 20:32:00,
2013-01-19 14:37:00,21.2,12.9,30.05,WNW,297,15.0,20.0,70,0.00,,,0.00,195.0,meteohub,2013-01-19 20:37:00,
2013-01-19 14:42:00,20.8,12.2,30.06,West,263,9.0,20.0,69,0.00,,,0.00,179.0,meteohub,2013-01-19 20:42:00,
2013-01-19 14:47:00,20.5,12.0,30.06,WNW,294,13.0,21.0,69,0.00,,,0.00,179.0,meteohub,2013-01-19 20:47:00,
2013-01-19 14:53:00,19.9,11.7,30.06,West,261,9.0,22.0,70,0.00,,,0.00,125.0,meteohub,2013-01-19 20:53:00,
2013-01-19 14:58:00,19.8,11.3,30.07,West,265,9.0,22.0,69,0.00,,,0.00,104.0,meteohub,2013-01-19 20:58:00,
2013-01-19 15:03:00,19.0,11.1,30.08,WNW,286,13.0,19.0,71,0.00,,,0.00,39.0,meteohub,2013-01-19 21:03:00,
2013-01-19 15:08:00,18.5,10.8,30.09,WSW,247,11.0,21.0,71,0.00,,,0.00,137.0,meteohub,2013-01-19 21:08:00,
2013-01-19 15:14:00,18.1,10.0,30.09,West,272,13.0,21.0,70,0.00,,,0.00,54.0,meteohub,2013-01-19 21:14:00,
2013-01-19 15:19:00,17.8,9.0,30.08,West,277,15.0,21.0,68,0.00,,,0.00,33.0,meteohub,2013-01-19 21:19:00,
2013-01-19 15:24:00,17.4,8.6,30.09,West,262,16.0,26.0,68,0.00,,,0.00,47.0,meteohub,2013-01-19 21:24:00,
2013-01-19 15:29:00,17.2,7.9,30.10,SW,225,19.0,26.0,66,0.00,,,0.00,42.0,meteohub,2013-01-19 21:29:00,
2013-01-19 15:35:00,17.1,7.3,30.10,WNW,286,9.0,27.0,65,0.00,,,0.00,60.0,meteohub,2013-01-19 21:35:00,
2013-01-19 15:42:00,16.5,7.5,30.11,WSW,248,18.0,26.0,67,0.00,,,0.00,46.0,meteohub,2013-01-19 21:42:00,
2013-01-19 15:48:00,16.3,6.6,30.12,West,263,9.0,26.0,65,0.00,,,0.00,46.0,meteohub,2013-01-19 21:48:00,
2013-01-19 15:53:00,16.2,6.4,30.12,West,269,14.0,22.0,65,0.00,,,0.00,35.0,meteohub,2013-01-19 21:53:00,
2013-01-19 15:58:00,15.8,6.4,30.13,WNW,294,14.0,22.0,66,0.00,,,0.00,32.0,meteohub,2013-01-19 21:58:00,
2013-01-19 16:04:00,15.4,6.1,30.14,WSW,250,10.0,20.0,66,0.00,,,0.00,30.0,meteohub,2013-01-19 22:04:00,
2013-01-19 16:09:00,15.1,6.4,30.14,WSW,252,7.0,20.0,68,0.00,,,0.00,32.0,meteohub,2013-01-19 22:09:00,
2013-01-19 16:14:00,14.9,6.6,30.15,WNW,288,12.0,20.0,69,0.00,,,0.00,33.0,meteohub,2013-01-19 22:14:00,
2013-01-19 16:19:00,14.7,6.8,30.15,WNW,284,13.0,19.0,70,0.00,,,0.00,35.0,meteohub,2013-01-19 22:19:00,
2013-01-19 16:24:00,14.4,6.6,30.15,WSW,241,12.0,18.0,71,0.00,,,0.00,33.0,meteohub,2013-01-19 22:24:00,
2013-01-19 16:29:00,14.2,6.4,30.17,WSW,251,9.0,21.0,71,0.00,,,0.00,21.0,meteohub,2013-01-19 22:29:00,
2013-01-19 16:34:00,13.6,5.0,30.17,WSW,257,23.0,23.0,68,0.00,,,0.00,21.0,meteohub,2013-01-19 22:34:00,
2013-01-19 16:40:00,13.5,4.8,30.18,West,264,6.0,23.0,68,0.00,,,0.00,16.0,meteohub,2013-01-19 22:40:00,
2013-01-19 16:45:00,13.3,4.5,30.18,West,269,7.0,23.0,67,0.00,,,0.00,12.0,meteohub,2013-01-19 22:45:00,
2013-01-19 16:50:00,12.7,4.1,30.19,WNW,291,6.0,19.0,68,0.00,,,0.00,16.0,meteohub,2013-01-19 22:50:00,
2013-01-19 16:55:00,12.6,5.0,30.19,West,274,11.0,19.0,71,0.00,,,0.00,11.0,meteohub,2013-01-19 22:55:00,
2013-01-19 17:00:00,12.4,5.0,30.19,NE,34,5.0,19.0,72,0.00,,,0.00,9.0,meteohub,2013-01-19 23:00:00,
2013-01-19 17:05:00,12.0,5.5,30.21,West,277,6.0,19.0,75,0.00,,,0.00,5.0,meteohub,2013-01-19 23:05:00,
2013-01-19 17:10:00,11.7,5.5,30.21,West,274,9.0,17.0,76,0.00,,,0.00,5.0,meteohub,2013-01-19 23:10:00,
2013-01-19 17:15:00,11.3,5.2,30.22,WNW,284,8.0,21.0,76,0.00,,,0.00,0.0,meteohub,2013-01-19 23:15:00,
2013-01-19 17:20:00,11.1,4.5,30.22,WSW,255,17.0,21.0,74,0.00,,,0.00,0.0,meteohub,2013-01-19 23:20:00,
2013-01-19 17:25:00,10.9,3.7,30.22,West,278,7.0,21.0,72,0.00,,,0.00,0.0,meteohub,2013-01-19 23:25:00,
2013-01-19 17:31:00,10.6,3.4,30.23,NNW,328,8.0,19.0,72,0.00,,,0.00,0.0,meteohub,2013-01-19 23:31:00,
2013-01-19 17:37:00,10.2,2.7,30.24,WSW,258,10.0,20.0,71,0.00,,,0.00,0.0,meteohub,2013-01-19 23:37:00,
2013-01-19 17:42:00,10.0,2.5,30.24,WNW,298,6.0,21.0,71,0.00,,,0.00,0.0,meteohub,2013-01-19 23:42:00,
2013-01-19 17:47:00,9.9,2.3,30.25,WNW,294,6.0,21.0,71,0.00,,,0.00,0.0,meteohub,2013-01-19 23:47:00,
2013-01-19 17:52:00,9.7,2.8,30.25,West,261,8.0,21.0,73,0.00,,,0.00,0.0,meteohub,2013-01-19 23:52:00,
2013-01-19 17:57:00,9.3,2.5,30.26,NW,305,10.0,19.0,73,0.00,,,0.00,0.0,meteohub,2013-01-19 23:57:00,
2013-01-19 18:02:00,9.1,2.3,30.26,West,275,9.0,18.0,73,0.00,,,0.00,0.0,meteohub,2013-01-20 00:02:00,
2013-01-19 18:07:00,9.1,2.3,30.27,West,259,6.0,19.0,73,0.00,,,0.00,0.0,meteohub,2013-01-20 00:07:00,
2013-01-19 18:12:00,9.0,2.1,30.27,West,265,8.0,19.0,73,0.00,,,0.00,0.0,meteohub,2013-01-20 00:12:00,
2013-01-19 18:18:00,8.6,1.9,30.28,West,274,10.0,19.0,74,0.00,,,0.00,0.0,meteohub,2013-01-20 00:18:00,
2013-01-19 18:23:00,8.4,2.1,30.28,SW,232,8.0,16.0,75,0.00,,,0.00,0.0,meteohub,2013-01-20 00:23:00,
2013-01-19 18:28:00,8.2,1.9,30.28,West,274,10.0,17.0,75,0.00,,,0.00,0.0,meteohub,2013-01-20 00:28:00,
2013-01-19 18:33:00,8.1,2.3,30.29,West,261,6.0,20.0,77,0.00,,,0.00,0.0,meteohub,2013-01-20 00:33:00,
2013-01-19 18:38:00,7.9,3.0,30.29,West,280,7.0,20.0,80,0.00,,,0.00,0.0,meteohub,2013-01-20 00:38:00,
2013-01-19 18:43:00,7.7,3.0,30.30,WSW,252,5.0,20.0,81,0.00,,,0.00,0.0,meteohub,2013-01-20 00:43:00,
2013-01-19 18:48:00,7.5,2.8,30.30,West,261,10.0,17.0,81,0.00,,,0.00,0.0,meteohub,2013-01-20 00:48:00,
2013-01-19 18:53:00,7.3,3.0,30.30,WNW,288,6.0,18.0,82,0.00,,,0.00,0.0,meteohub,2013-01-20 00:53:00,
2013-01-19 18:58:00,7.3,3.0,30.30,West,261,7.0,18.0,82,0.00,,,0.00,0.0,meteohub,2013-01-20 00:58:00,
2013-01-19 19:03:00,7.2,2.8,30.31,NW,317,5.0,18.0,82,0.00,,,0.00,0.0,meteohub,2013-01-20 01:03:00,
2013-01-19 19:08:00,7.2,3.0,30.31,North,5,7.0,14.0,83,0.00,,,0.00,0.0,meteohub,2013-01-20 01:08:00,
2013-01-19 19:13:00,7.0,3.2,30.31,West,267,12.0,14.0,84,0.00,,,0.00,0.0,meteohub,2013-01-20 01:13:00,
2013-01-19 19:19:00,6.6,2.8,30.32,West,260,11.0,17.0,84,0.00,,,0.00,0.0,meteohub,2013-01-20 01:19:00,
2013-01-19 19:24:00,6.4,2.3,30.32,West,281,5.0,18.0,83,0.00,,,0.00,0.0,meteohub,2013-01-20 01:24:00,
2013-01-19 19:29:00,6.4,2.3,30.33,WNW,291,4.0,18.0,83,0.00,,,0.00,0.0,meteohub,2013-01-20 01:29:00,
2013-01-19 19:34:00,6.3,1.9,30.33,WSW,253,10.0,18.0,82,0.00,,,0.00,0.0,meteohub,2013-01-20 01:34:00,
2013-01-19 19:39:00,6.1,1.8,30.33,NNW,333,10.0,13.0,82,0.00,,,0.00,0.0,meteohub,2013-01-20 01:39:00,
2013-01-19 19:45:00,5.9,1.4,30.34,NW,326,3.0,13.0,81,0.00,,,0.00,0.0,meteohub,2013-01-20 01:45:00,
2013-01-19 19:50:00,5.7,1.2,30.34,WNW,290,5.0,17.0,81,0.00,,,0.00,0.0,meteohub,2013-01-20 01:50:00,
2013-01-19 19:55:00,5.7,0.9,30.35,WSW,252,1.0,17.0,80,0.00,,,0.00,0.0,meteohub,2013-01-20 01:55:00,
2013-01-19 20:00:00,5.7,1.2,30.34,WSW,241,11.0,12.0,81,0.00,,,0.00,0.0,meteohub,2013-01-20 02:00:00,
2013-01-19 20:05:00,5.4,0.0,30.36,SW,235,8.0,17.0,78,0.00,,,0.00,0.0,meteohub,2013-01-20 02:05:00,
2013-01-19 20:10:00,5.4,-0.6,30.36,West,266,8.0,17.0,76,0.00,,,0.00,0.0,meteohub,2013-01-20 02:10:00,
2013-01-19 20:15:00,5.2,-0.8,30.36,WNW,300,3.0,15.0,76,0.00,,,0.00,0.0,meteohub,2013-01-20 02:15:00,
2013-01-19 20:20:00,5.0,-0.9,30.36,West,269,8.0,13.0,76,0.00,,,0.00,0.0,meteohub,2013-01-20 02:20:00,
2013-01-19 20:25:00,4.8,-1.1,30.36,West,263,4.0,11.0,76,0.00,,,0.00,0.0,meteohub,2013-01-20 02:25:00,
2013-01-19 20:30:00,4.6,-0.9,30.37,WSW,256,8.0,10.0,77,0.00,,,0.00,0.0,meteohub,2013-01-20 02:30:00,
2013-01-19 20:35:00,4.6,-0.9,30.38,NW,306,3.0,13.0,77,0.00,,,0.00,0.0,meteohub,2013-01-20 02:35:00,
2013-01-19 20:41:00,4.5,-0.9,30.38,SW,233,6.0,13.0,78,0.00,,,0.00,0.0,meteohub,2013-01-20 02:41:00,
2013-01-19 20:46:00,4.5,-0.9,30.38,WNW,298,3.0,13.0,78,0.00,,,0.00,0.0,meteohub,2013-01-20 02:46:00,
2013-01-19 20:51:00,4.3,-1.1,30.38,West,263,4.0,9.0,78,0.00,,,0.00,0.0,meteohub,2013-01-20 02:51:00,
2013-01-19 20:57:00,4.3,-1.3,30.38,West,266,6.0,12.0,77,0.00,,,0.00,0.0,meteohub,2013-01-20 02:57:00,
2013-01-19 21:02:00,4.1,-1.8,30.39,NNW,341,0.0,12.0,76,0.00,,,0.00,0.0,meteohub,2013-01-20 03:02:00,
2013-01-19 21:07:00,3.9,-1.7,30.38,NNW,328,3.0,12.0,77,0.00,,,0.00,0.0,meteohub,2013-01-20 03:07:00,
2013-01-19 21:12:00,3.7,-1.7,30.38,WNW,298,2.0,15.0,78,0.00,,,0.00,0.0,meteohub,2013-01-20 03:12:00,
2013-01-19 21:17:00,3.7,-1.1,30.38,WNW,282,4.0,15.0,80,0.00,,,0.00,0.0,meteohub,2013-01-20 03:17:00,
2013-01-19 21:22:00,3.6,-1.3,30.38,WNW,290,4.0,15.0,80,0.00,,,0.00,0.0,meteohub,2013-01-20 03:22:00,
2013-01-19 21:27:00,3.6,-1.3,30.39,WNW,302,5.0,11.0,80,0.00,,,0.00,0.0,meteohub,2013-01-20 03:27:00,
2013-01-19 21:32:00,3.4,-1.5,30.38,West,273,3.0,11.0,80,0.00,,,0.00,0.0,meteohub,2013-01-20 03:32:00,
2013-01-19 21:37:00,3.4,-1.7,30.38,West,275,8.0,11.0,79,0.00,,,0.00,0.0,meteohub,2013-01-20 03:37:00,
2013-01-19 21:43:00,3.0,-2.2,30.38,WNW,282,4.0,14.0,78,0.00,,,0.00,0.0,meteohub,2013-01-20 03:43:00,
2013-01-19 21:48:00,2.8,-2.4,30.38,West,270,3.0,15.0,78,0.00,,,0.00,0.0,meteohub,2013-01-20 03:48:00,
2013-01-19 21:53:00,2.8,-2.4,30.38,WNW,285,3.0,15.0,78,0.00,,,0.00,0.0,meteohub,2013-01-20 03:53:00,
2013-01-19 21:58:00,2.7,-2.4,30.38,West,268,6.0,10.0,79,0.00,,,0.00,0.0,meteohub,2013-01-20 03:58:00,
2013-01-19 22:03:00,2.7,-2.4,30.38,NNE,16,4.0,10.0,79,0.00,,,0.00,0.0,meteohub,2013-01-20 04:03:00,
2013-01-19 22:08:00,2.7,-2.6,30.38,West,271,5.0,10.0,78,0.00,,,0.00,0.0,meteohub,2013-01-20 04:08:00,
2013-01-19 22:13:00,2.5,-2.7,30.39,WNW,302,3.0,10.0,78,0.00,,,0.00,0.0,meteohub,2013-01-20 04:13:00,
2013-01-19 22:18:00,2.5,-2.6,30.40,West,275,7.0,10.0,79,0.00,,,0.00,0.0,meteohub,2013-01-20 04:18:00,
2013-01-19 22:23:00,2.3,-2.7,30.40,West,272,7.0,11.0,79,0.00,,,0.00,0.0,meteohub,2013-01-20 04:23:00,
2013-01-19 22:28:00,2.1,-2.9,30.40,WNW,290,2.0,11.0,79,0.00,,,0.00,0.0,meteohub,2013-01-20 04:28:00,
2013-01-19 22:33:00,2.1,-2.9,30.40,West,265,4.0,12.0,79,0.00,,,0.00,0.0,meteohub,2013-01-20 04:33:00,
2013-01-19 22:38:00,1.9,-3.1,30.41,West,278,6.0,12.0,79,0.00,,,0.00,0.0,meteohub,2013-01-20 04:38:00,
2013-01-19 22:43:00,1.9,-3.3,30.41,WSW,249,4.0,11.0,78,0.00,,,0.00,0.0,meteohub,2013-01-20 04:43:00,
2013-01-19 22:48:00,1.9,-3.1,30.41,West,279,4.0,11.0,79,0.00,,,0.00,0.0,meteohub,2013-01-20 04:48:00,
2013-01-19 22:53:00,1.9,-3.1,30.41,West,271,9.0,16.0,79,0.00,,,0.00,0.0,meteohub,2013-01-20 04:53:00,
2013-01-19 22:58:00,1.8,-3.3,30.41,WNW,294,2.0,16.0,79,0.00,,,0.00,0.0,meteohub,2013-01-20 04:58:00,
2013-01-19 23:00:00,1.8,-3.3,30.41,NW,315,2.0,16.0,79,0.00,,,0.00,0.0,meteohub,2013-01-20 05:00:00,
2013-01-19 23:01:00,1.8,-3.3,30.41,West,272,5.0,10.0,79,0.00,,,0.00,0.0,meteohub,2013-01-20 05:01:00,
2013-01-19 23:03:00,1.8,-3.3,30.41,West,275,2.0,10.0,79,0.00,,,0.00,0.0,meteohub,2013-01-20 05:03:00,
2013-01-19 23:08:00,1.8,-3.3,30.41,WSW,252,4.0,10.0,79,0.00,,,0.00,0.0,meteohub,2013-01-20 05:08:00,
2013-01-19 23:13:00,1.6,-3.5,30.41,WNW,292,6.0,10.0,79,0.00,,,0.00,0.0,meteohub,2013-01-20 05:13:00,
2013-01-19 23:18:00,1.6,-3.5,30.42,WNW,286,3.0,12.0,79,0.00,,,0.00,0.0,meteohub,2013-01-20 05:18:00,
2013-01-19 23:23:00,1.6,-3.6,30.41,West,272,7.0,12.0,78,0.00,,,0.00,0.0,meteohub,2013-01-20 05:23:00,
2013-01-19 23:28:00,1.4,-4.2,30.41,West,269,5.0,12.0,77,0.00,,,0.00,0.0,meteohub,2013-01-20 05:28:00,
2013-01-19 23:33:00,1.2,-4.4,30.41,WSW,251,8.0,12.0,77,0.00,,,0.00,0.0,meteohub,2013-01-20 05:33:00,
2013-01-19 23:38:00,1.2,-4.4,30.41,North,350,2.0,11.0,77,0.00,,,0.00,0.0,meteohub,2013-01-20 05:38:00,
2013-01-19 23:43:00,1.0,-4.2,30.41,NNW,338,2.0,11.0,78,0.00,,,0.00,0.0,meteohub,2013-01-20 05:43:00,
2013-01-19 23:48:00,1.0,-4.2,30.41,NW,310,3.0,11.0,78,0.00,,,0.00,0.0,meteohub,2013-01-20 05:48:00,
2013-01-19 23:53:00,1.0,-4.5,30.41,West,279,4.0,11.0,77,0.00,,,0.00,0.0,meteohub,2013-01-20 05:53:00,
2013-01-19 23:58:00,0.9,-4.7,30.41,West,269,4.0,11.0,77,0.00,,,0.00,0.0,meteohub,2013-01-20 05:58:00,